Time;durP1;ratioP1;P1;durP2;ratioP2;P2;SDS_P1;SDS_P2;PMS_P1;PMS_P2;Temp;Humidity;BMP_temperature;BMP_pressure;BME280_temperature;BME280_humidity;BME280_pressure;Samples;Min_cycle;Max_cycle;Signal;HPM_P1;HPM_P2
2023/01/27 00:00:06;;;;;;;18.67;4.57;;;;;;;4.24;100.00;102393.53;5018739;28;20044;-69
2023/01/27 00:02:38;;;;;;;17.10;5.00;;;;;;;4.18;100.00;102394.47;5023940;28;20099;-71
2023/01/27 00:05:04;;;;;;;11.82;4.65;;;;;;;4.19;100.00;102390.06;5024385;28;20140;-70
2023/01/27 00:07:30;;;;;;;17.80;4.88;;;;;;;4.28;100.00;102396.13;5021387;28;20037;-70
2023/01/27 00:09:55;;;;;;;14.32;5.60;;;;;;;4.18;100.00;102394.47;5024304;28;20037;-70
2023/01/27 00:15:09;;;;;;;12.85;3.65;;;;;;;4.19;100.00;102393.59;5022292;28;20721;-70
2023/01/27 00:17:34;;;;;;;16.85;5.90;;;;;;;4.33;100.00;102385.50;5025384;28;20036;-70
2023/01/27 00:20:01;;;;;;;13.07;5.90;;;;;;;4.33;100.00;102385.50;5024410;28;20037;-70
2023/01/27 00:25:11;;;;;;;24.63;5.90;;;;;;;4.25;100.00;102387.34;5027850;28;20063;-70
2023/01/27 00:27:37;;;;;;;15.77;4.72;;;;;;;4.10;100.00;102391.03;5023648;28;20553;-70
2023/01/27 00:30:06;;;;;;;20.38;5.22;;;;;;;4.19;100.00;102388.31;5023773;28;20124;-70
2023/01/27 00:35:16;;;;;;;22.00;6.10;;;;;;;4.13;100.00;102394.53;5025036;28;20052;-70
2023/01/27 00:37:42;;;;;;;19.92;5.88;;;;;;;4.09;100.00;102394.59;5018988;28;20731;-70
2023/01/27 00:40:10;;;;;;;23.85;6.35;;;;;;;4.08;100.00;102396.34;5020861;28;20069;-70
2023/01/27 00:42:35;;;;;;;22.13;6.93;;;;;;;4.18;100.00;102399.75;5021734;28;20033;-70
2023/01/27 00:47:47;;;;;;;22.08;5.63;;;;;;;4.06;100.00;102397.25;5003848;28;20041;-70
2023/01/27 00:50:13;;;;;;;30.80;5.43;;;;;;;4.04;100.00;102404.31;5024611;28;20128;-70
2023/01/27 00:52:39;;;;;;;18.52;5.55;;;;;;;4.03;100.00;102411.38;5016559;28;20037;-70
2023/01/27 00:55:06;;;;;;;23.52;6.90;;;;;;;4.10;100.00;102399.84;5002588;28;20033;-70
2023/01/27 00:57:42;;;;;;;22.40;6.20;;;;;;;3.96;100.00;102409.66;5022944;28;20029;-70
2023/01/27 01:00:08;;;;;;;13.63;5.75;;;;;;;4.02;100.00;102411.38;5015554;28;20041;-70
2023/01/27 01:02:35;;;;;;;13.90;4.78;;;;;;;3.93;100.00;102408.84;5016898;28;20049;-70
2023/01/27 01:05:01;;;;;;;19.60;5.85;;;;;;;3.95;100.00;102407.06;5021836;28;20029;-70
2023/01/27 01:07:27;;;;;;;19.52;5.93;;;;;;;4.03;100.00;102410.50;5024592;28;20041;-70
2023/01/27 01:09:53;;;;;;;19.55;6.55;;;;;;;4.00;100.00;102411.38;5008700;28;20048;-71
2023/01/27 01:12:20;;;;;;;16.30;5.97;;;;;;;3.97;100.00;102415.84;5024214;28;20037;-71
2023/01/27 01:14:48;;;;;;;24.92;6.60;;;;;;;3.97;100.00;102422.00;5004448;28;20517;-71
2023/01/27 01:17:14;;;;;;;20.52;6.63;;;;;;;3.98;100.00;102418.47;5007281;28;20034;-71
2023/01/27 01:19:39;;;;;;;20.80;6.45;;;;;;;4.00;100.00;102426.34;5026795;28;20039;-71
2023/01/27 01:22:05;;;;;;;27.05;7.25;;;;;;;3.99;100.00;102420.19;5028284;28;20038;-71
2023/01/27 01:24:30;;;;;;;15.55;6.20;;;;;;;4.01;100.00;102434.25;5005376;28;20033;-71
2023/01/27 01:26:55;;;;;;;23.70;7.07;;;;;;;4.09;100.00;102424.50;5025987;28;20033;-71
2023/01/27 01:29:22;;;;;;;14.27;6.07;;;;;;;3.90;100.00;102422.94;5004527;28;20111;-71
2023/01/27 01:31:50;;;;;;;19.92;6.95;;;;;;;3.94;100.00;102429.06;5026776;28;20501;-71
2023/01/27 01:34:15;;;;;;;24.25;6.72;;;;;;;3.92;100.00;102433.50;5026386;28;20037;-72
2023/01/27 01:36:42;;;;;;;17.05;6.57;;;;;;;3.90;100.00;102431.72;4999803;28;20087;-71
2023/01/27 01:39:07;;;;;;;24.23;6.55;;;;;;;3.98;100.00;102443.97;5028185;28;20037;-71
2023/01/27 01:41:33;;;;;;;24.35;8.35;;;;;;;3.92;100.00;102437.00;5027621;28;20670;-71
2023/01/27 01:44:29;;;;;;;16.60;6.45;;;;;;;4.00;100.00;102437.78;5016151;28;20564;-71
2023/01/27 01:46:58;;;;;;;26.35;6.45;;;;;;;3.90;100.00;102446.69;5019303;28;20103;-71
2023/01/27 01:49:33;;;;;;;18.58;5.07;;;;;;;3.89;100.00;102439.66;5028600;28;20045;-71
2023/01/27 01:52:04;;;;;;;19.45;7.35;;;;;;;3.95;100.00;102431.66;5022161;28;20033;-70
2023/01/27 01:54:36;;;;;;;19.40;5.57;;;;;;;3.83;100.00;102445.88;5006964;28;20493;-71
2023/01/27 01:57:17;;;;;;;21.48;7.57;;;;;;;3.88;100.00;102446.69;5020892;28;20124;-71
2023/01/27 02:00:08;;;;;;;19.63;6.97;;;;;;;3.96;100.00;102440.47;5029166;28;20068;-71
2023/01/27 02:02:40;;;;;;;23.02;8.10;;;;;;;3.99;100.00;102446.59;5024608;28;20597;-71
2023/01/27 02:05:15;;;;;;;31.15;9.15;;;;;;;4.00;100.00;102435.13;5025723;28;20037;-71
2023/01/27 02:07:52;;;;;;;28.58;10.43;;;;;;;4.09;100.00;102442.97;5026829;28;20041;-71
2023/01/27 02:10:22;;;;;;;20.25;7.95;;;;;;;3.87;100.00;102444.09;4999238;28;20111;-71
2023/01/27 02:12:48;;;;;;;19.05;8.23;;;;;;;3.92;100.00;102454.59;5022600;28;20049;-71
2023/01/27 02:15:13;;;;;;;20.27;8.40;;;;;;;3.93;100.00;102445.78;5025974;28;20049;-72
2023/01/27 02:17:40;;;;;;;25.15;8.60;;;;;;;3.99;100.00;102445.72;5033865;28;20037;-71
2023/01/27 02:20:18;;;;;;;31.75;9.00;;;;;;;3.89;100.00;102452.84;5032169;28;20778;-71
2023/01/27 02:23:05;;;;;;;29.05;9.23;;;;;;;3.93;100.00;102454.56;5028643;28;20033;-71
2023/01/27 02:25:33;;;;;;;26.00;8.73;;;;;;;3.91;100.00;102453.69;5007241;28;20038;-71
2023/01/27 02:28:00;;;;;;;22.27;8.27;;;;;;;3.92;100.00;102458.13;5018147;28;20038;-71
2023/01/27 02:30:26;;;;;;;31.23;10.45;;;;;;;3.94;100.00;102455.44;5022436;28;20037;-73
2023/01/27 02:32:51;;;;;;;33.25;9.70;;;;;;;3.96;100.00;102465.09;5023079;28;20103;-71
2023/01/27 02:35:24;;;;;;;32.75;10.43;;;;;;;3.94;100.00;102463.38;5026543;28;20464;-70
2023/01/27 02:37:50;;;;;;;31.65;10.68;;;;;;;3.87;100.00;102463.44;5018891;28;20048;-71
2023/01/27 02:40:17;;;;;;;32.22;10.27;;;;;;;3.93;100.00;102470.41;5011583;28;20043;-71
2023/01/27 02:42:42;;;;;;;38.83;12.02;;;;;;;3.88;100.00;102470.44;5004469;28;20041;-71
2023/01/27 02:45:08;;;;;;;29.67;11.90;;;;;;;3.84;100.00;102475.78;5010098;28;20091;-70
2023/01/27 02:47:34;;;;;;;29.70;10.50;;;;;;;3.78;100.00;102470.56;5014986;28;20041;-71
2023/01/27 02:50:01;;;;;;;32.92;11.38;;;;;;;3.72;100.00;102466.22;5006974;28;20048;-71
2023/01/27 02:52:26;;;;;;;30.15;10.40;;;;;;;3.81;100.00;102471.38;5002537;28;20124;-71
2023/01/27 02:54:52;;;;;;;32.25;11.95;;;;;;;3.69;100.00;102474.13;5006734;28;20110;-71
2023/01/27 02:57:18;;;;;;;24.25;10.45;;;;;;;3.66;100.00;102463.59;5001306;28;20030;-71
2023/01/27 02:59:55;;;;;;;29.83;11.02;;;;;;;3.70;100.00;102470.59;5009556;28;20612;-71
2023/01/27 03:02:21;;;;;;;25.48;10.13;;;;;;;3.74;100.00;102474.09;5026680;28;20057;-72
2023/01/27 03:04:48;;;;;;;26.38;10.98;;;;;;;3.69;100.00;102466.22;5009362;28;20532;-71
2023/01/27 03:07:21;;;;;;;29.55;11.07;;;;;;;3.64;100.00;102470.66;5003778;28;20025;-75
2023/01/27 03:09:46;;;;;;;23.95;11.05;;;;;;;3.70;100.00;102467.09;5003853;28;20136;-71
2023/01/27 03:12:21;;;;;;;29.48;11.43;;;;;;;3.70;100.00;102477.66;5006699;28;20065;-71
2023/01/27 03:20:16;;;;;;;31.23;11.68;;;;;;;3.65;100.00;102469.78;5022716;28;20033;-71
2023/01/27 03:22:42;;;;;;;29.25;11.07;;;;;;;3.56;100.00;102468.06;5006389;28;20049;-71
2023/01/27 03:25:11;;;;;;;31.27;11.35;;;;;;;3.61;100.00;102476.84;5000290;28;20034;-71
2023/01/27 03:27:36;;;;;;;31.67;11.90;;;;;;;3.60;100.00;102474.22;5006673;28;20037;-72
2023/01/27 03:30:21;;;;;;;32.42;11.52;;;;;;;3.56;100.00;102478.63;5023088;28;20054;-71
2023/01/27 03:32:56;;;;;;;27.30;11.73;;;;;;;3.65;100.00;102485.59;5002681;28;20044;-71
2023/01/27 03:47:00;;;;;;;22.95;9.23;;;;;;;3.71;100.00;102480.25;5028286;28;20052;-71
2023/01/27 03:49:25;;;;;;;33.95;9.77;;;;;;;3.66;100.00;102483.84;5019628;28;20038;-71
2023/01/27 03:51:51;;;;;;;26.27;10.93;;;;;;;3.75;100.00;102487.28;5017874;28;20044;-71
2023/01/27 03:54:17;;;;;;;27.02;11.68;;;;;;;3.80;100.00;102495.16;5020213;28;20038;-71
2023/01/27 03:56:42;;;;;;;28.27;10.80;;;;;;;3.82;100.00;102490.75;5017448;28;20407;-71
2023/01/27 03:59:08;;;;;;;22.83;9.77;;;;;;;3.79;100.00;102489.00;5028799;28;20482;-71
2023/01/27 04:01:33;;;;;;;20.42;10.50;;;;;;;3.81;100.00;102492.50;5020934;28;20490;-71
2023/01/27 04:06:59;;;;;;;28.02;10.48;;;;;;;3.86;100.00;102497.72;5021605;28;20029;-71
2023/01/27 04:09:35;;;;;;;32.30;11.60;;;;;;;3.77;100.00;102503.97;5021019;28;20064;-70
2023/01/27 04:12:04;;;;;;;21.15;10.13;;;;;;;3.92;100.00;102496.81;5018323;28;20501;-71
2023/01/27 04:14:37;;;;;;;17.58;8.48;;;;;;;3.82;100.00;102498.66;5018348;28;20034;-70
2023/01/27 04:17:10;;;;;;;;;;;;;;;3.87;100.00;102499.50;5019060;28;20037;-71
2023/01/27 04:19:35;;;;;;;24.15;10.15;;;;;;;3.84;100.00;102503.03;5026120;28;20492;-71
2023/01/27 04:22:02;;;;;;;23.15;9.35;;;;;;;3.81;100.00;102504.81;5000207;28;20664;-71
2023/01/27 04:24:28;;;;;;;21.15;10.40;;;;;;;3.85;100.00;102499.50;5017771;28;20048;-72
2023/01/27 04:27:02;;;;;;;22.70;9.80;;;;;;;3.82;100.00;102499.53;5023132;28;20445;-71
2023/01/27 04:29:30;;;;;;;27.70;12.13;;;;;;;3.89;100.00;102503.00;5021848;28;20624;-70
2023/01/27 04:31:56;;;;;;;24.27;11.30;;;;;;;3.87;100.00;102507.41;5022130;28;20620;-71
2023/01/27 04:34:23;;;;;;;25.52;10.75;;;;;;;3.86;100.00;102498.59;5024515;28;20593;-71
2023/01/27 04:36:57;;;;;;;33.70;12.52;;;;;;;3.95;100.00;102507.34;5016143;28;20034;-71
2023/01/27 04:39:24;;;;;;;22.48;8.40;;;;;;;3.82;100.00;102509.22;5023561;28;20041;-71
2023/01/27 04:41:50;;;;;;;22.15;9.55;;;;;;;3.94;100.00;102521.44;5017384;28;20033;-71
2023/01/27 04:44:18;;;;;;;23.40;11.02;;;;;;;3.89;100.00;102508.25;5021704;28;20072;-71
2023/01/27 04:46:44;;;;;;;23.42;10.60;;;;;;;4.01;100.00;102509.91;4998986;28;20457;-71
2023/01/27 04:49:10;;;;;;;27.88;10.27;;;;;;;3.90;100.00;102510.88;5018616;28;20049;-71
2023/01/27 04:51:36;;;;;;;24.13;11.10;;;;;;;3.97;100.00;102508.22;5025975;28;20037;-70
2023/01/27 04:54:05;;;;;;;19.02;9.50;;;;;;;3.90;100.00;102510.88;5026152;28;20053;-72
2023/01/27 04:56:34;;;;;;;20.42;8.90;;;;;;;3.91;100.00;102506.47;5031325;28;20049;-72
2023/01/27 04:59:02;;;;;;;22.10;9.57;;;;;;;3.92;100.00;102512.66;5027114;28;20037;-72
2023/01/27 05:01:28;;;;;;;24.23;8.57;;;;;;;3.95;100.00;102508.22;5022676;28;20063;-72
2023/01/27 05:03:54;;;;;;;19.92;8.77;;;;;;;3.90;100.00;102512.66;5024032;28;20126;-72
2023/01/27 05:06:20;;;;;;;22.02;9.00;;;;;;;3.97;100.00;102510.84;5024185;28;20045;-72
2023/01/27 05:08:46;;;;;;;24.30;9.40;;;;;;;4.01;100.00;102512.53;5026743;28;20120;-71
2023/01/27 05:11:11;;;;;;;21.40;8.20;;;;;;;3.96;100.00;102517.88;5023185;28;20549;-71
2023/01/27 05:13:39;;;;;;;22.48;10.13;;;;;;;4.02;100.00;102514.31;5006353;28;20414;-72
2023/01/27 05:16:22;;;;;;;19.58;9.10;;;;;;;4.01;100.00;102518.69;5027288;28;20049;-71
2023/01/27 05:18:48;;;;;;;;;;;;;;;4.05;100.00;102509.88;5026750;28;20504;-69
2023/01/27 05:21:21;;;;;;;20.15;8.50;;;;;;;4.00;100.00;102505.53;5021931;28;19940;-71
2023/01/27 05:23:46;;;;;;;15.48;8.05;;;;;;;4.01;100.00;102504.63;5023331;28;20037;-71
2023/01/27 05:26:16;;;;;;;21.60;7.88;;;;;;;4.04;100.00;102510.75;5015032;28;20646;-71
2023/01/27 05:28:43;;;;;;;16.33;7.90;;;;;;;3.92;100.00;102515.28;5022894;28;20137;-70
2023/01/27 05:31:17;;;;;;;20.02;9.13;;;;;;;3.97;100.00;102509.09;5029733;28;20071;-70
2023/01/27 05:33:43;;;;;;;20.25;7.97;;;;;;;4.05;100.00;102512.50;5024658;28;20455;-70
2023/01/27 05:36:11;;;;;;;13.30;6.35;;;;;;;4.05;100.00;102512.50;5023692;28;20575;-71
2023/01/27 05:38:36;;;;;;;14.95;8.05;;;;;;;4.05;100.00;102509.00;5023533;28;20034;-70
2023/01/27 05:41:05;;;;;;;16.80;6.82;;;;;;;4.00;100.00;102519.59;5020573;28;20045;-70
2023/01/27 05:43:32;;;;;;;16.27;6.30;;;;;;;3.96;100.00;102517.88;5021781;28;20068;-70
2023/01/27 05:46:08;;;;;;;14.27;5.85;;;;;;;3.99;100.00;102509.94;5022905;28;20503;-70
2023/01/27 05:48:35;;;;;;;14.88;6.25;;;;;;;4.11;100.00;102515.09;5019257;28;20044;-70
2023/01/27 05:51:01;;;;;;;15.00;6.80;;;;;;;3.99;100.00;102509.06;5022588;28;20042;-70
2023/01/27 05:53:26;;;;;;;10.63;6.00;;;;;;;3.89;100.00;102509.13;5026230;28;20034;-70
2023/01/27 05:55:53;;;;;;;13.40;5.72;;;;;;;3.82;100.00;102520.66;5025560;28;20053;-70
2023/01/27 05:58:19;;;;;;;15.20;6.88;;;;;;;3.83;100.00;102525.03;5019630;28;20069;-70
2023/01/27 06:00:45;;;;;;;13.55;6.25;;;;;;;3.81;100.00;102525.91;5021898;28;20025;-69
2023/01/27 06:03:10;;;;;;;12.20;6.18;;;;;;;3.86;100.00;102537.31;5024564;28;20049;-70
2023/01/27 06:05:36;;;;;;;10.50;5.97;;;;;;;3.77;100.00;102521.56;5025605;28;20056;-69
2023/01/27 06:08:01;;;;;;;16.30;6.97;;;;;;;3.83;100.00;102535.59;5019448;28;20021;-72
2023/01/27 06:10:27;;;;;;;14.23;7.63;;;;;;;3.65;100.00;102533.06;5022370;28;20048;-70
2023/01/27 06:12:53;;;;;;;11.18;5.85;;;;;;;3.60;100.00;102542.78;5019144;28;20033;-70
2023/01/27 06:15:18;;;;;;;13.80;6.55;;;;;;;3.62;100.00;102543.66;5017149;28;20057;-70
2023/01/27 06:17:43;;;;;;;12.40;5.90;;;;;;;3.51;100.00;102551.63;5018681;28;20034;-70
2023/01/27 06:20:09;;;;;;;11.23;6.22;;;;;;;3.30;100.00;102557.03;5021071;28;20313;-70
2023/01/27 06:22:36;;;;;;;14.73;6.60;;;;;;;3.29;100.00;102568.47;5020899;28;20405;-70
2023/01/27 06:25:01;;;;;;;15.23;6.22;;;;;;;3.38;100.00;102564.03;5026142;28;20037;-70
2023/01/27 06:27:27;;;;;;;14.73;6.93;;;;;;;3.34;100.00;102561.41;5015430;28;20548;-70
2023/01/27 06:29:52;;;;;;;13.93;6.32;;;;;;;3.38;100.00;102566.66;5025825;28;20850;-70
2023/01/27 06:32:18;;;;;;;9.75;5.50;;;;;;;3.21;100.00;102563.22;5025287;28;20053;-70
2023/01/27 06:34:43;;;;;;;13.77;5.53;;;;;;;3.19;100.00;102556.22;5024273;28;20065;-70
2023/01/27 06:37:09;;;;;;;11.20;6.05;;;;;;;3.13;100.00;102558.91;5026438;28;20064;-70
2023/01/27 06:39:34;;;;;;;10.18;5.35;;;;;;;3.07;100.00;102567.72;5023967;28;20055;-70
2023/01/27 06:41:59;;;;;;;10.30;5.07;;;;;;;3.04;100.00;102576.50;5024075;28;20498;-70
2023/01/27 06:44:26;;;;;;;16.13;6.13;;;;;;;3.07;100.00;102578.25;5016218;28;20856;-69
2023/01/27 06:46:52;;;;;;;13.68;5.80;;;;;;;2.96;100.00;102582.66;5019196;28;20616;-71
2023/01/27 06:49:18;;;;;;;14.00;6.10;;;;;;;2.86;100.00;102579.19;5017552;28;20041;-70
2023/01/27 06:51:43;;;;;;;13.80;6.55;;;;;;;2.87;100.00;102588.88;5024545;28;20509;-70
2023/01/27 06:54:09;;;;;;;12.07;6.82;;;;;;;3.01;100.00;102589.72;5018786;28;20041;-70
2023/01/27 06:56:34;;;;;;;12.27;6.00;;;;;;;3.01;100.00;102591.44;5016261;28;20037;-70
2023/01/27 06:59:02;;;;;;;12.05;6.05;;;;;;;3.04;100.00;102591.44;5021132;28;20041;-70
2023/01/27 07:01:28;;;;;;;8.35;5.03;;;;;;;3.10;100.00;102586.13;5018046;28;20064;-70
2023/01/27 07:03:53;;;;;;;13.75;5.57;;;;;;;3.24;100.00;102588.72;5002122;28;20079;-70
2023/01/27 07:06:19;;;;;;;14.15;6.30;;;;;;;3.27;100.00;102589.59;5021860;28;20037;-70
2023/01/27 07:08:46;;;;;;;12.18;5.57;;;;;;;3.30;100.00;102596.59;5022345;28;20052;-71
2023/01/27 07:11:12;;;;;;;14.98;5.50;;;;;;;3.33;100.00;102600.09;5021063;28;20534;-69
2023/01/27 07:13:37;;;;;;;10.90;4.78;;;;;;;3.27;100.00;102601.91;5016790;28;20037;-70
2023/01/27 07:16:03;;;;;;;11.00;5.38;;;;;;;3.35;100.00;102597.44;5015409;28;20056;-70
2023/01/27 07:18:28;;;;;;;8.45;5.10;;;;;;;3.37;100.00;102601.84;5025530;28;20041;-70
2023/01/27 07:20:54;;;;;;;14.25;5.63;;;;;;;3.36;100.00;102600.09;5019409;28;20030;-71
2023/01/27 07:23:19;;;;;;;11.32;5.78;;;;;;;3.38;100.00;102611.50;5026037;28;20038;-71
2023/01/27 07:25:45;;;;;;;10.30;5.20;;;;;;;3.43;100.00;102610.59;5021547;28;20048;-70
2023/01/27 07:28:10;;;;;;;13.35;5.65;;;;;;;3.31;100.00;102620.31;5022300;28;20052;-70
2023/01/27 07:30:37;;;;;;;12.20;5.22;;;;;;;3.36;100.00;102612.38;5024049;28;20087;-70
2023/01/27 07:33:10;;;;;;;11.60;5.35;;;;;;;3.39;100.00;102612.38;5020964;28;20111;-70
2023/01/27 07:35:37;;;;;;;11.82;4.38;;;;;;;3.35;100.00;102611.50;5017942;28;20087;-70
2023/01/27 07:38:04;;;;;;;10.13;4.45;;;;;;;3.41;100.00;102612.34;5022024;28;20029;-70
2023/01/27 07:40:29;;;;;;;9.90;4.30;;;;;;;3.52;100.00;102613.19;5000749;28;20588;-70
2023/01/27 07:42:58;;;;;;;12.35;5.72;;;;;;;3.46;100.00;102616.72;5012761;28;20030;-70
2023/01/27 07:45:26;;;;;;;8.75;4.80;;;;;;;3.45;100.00;102627.28;4997125;28;20564;-70
2023/01/27 07:47:51;;;;;;;8.73;4.20;;;;;;;3.49;100.00;102623.75;5016870;28;20026;-70
2023/01/27 07:50:17;;;;;;;8.13;4.85;;;;;;;3.47;100.00;102628.16;5015157;28;20042;-70
2023/01/27 07:52:42;;;;;;;7.32;4.15;;;;;;;3.54;100.00;102619.31;5018575;28;20041;-70
2023/01/27 07:55:10;;;;;;;9.07;4.25;;;;;;;3.45;100.00;102630.78;5016948;28;20037;-70
2023/01/27 07:57:36;;;;;;;8.90;4.32;;;;;;;3.52;100.00;102629.00;5013870;28;20622;-70
2023/01/27 08:00:04;;;;;;;9.27;4.78;;;;;;;3.53;100.00;102623.72;5018940;28;20037;-70
2023/01/27 08:02:38;;;;;;;7.63;4.35;;;;;;;3.52;100.00;102629.00;5020115;28;20113;-69
2023/01/27 08:05:04;;;;;;;8.75;4.88;;;;;;;3.55;100.00;102632.50;5026030;28;20593;-70
2023/01/27 08:07:29;;;;;;;10.77;4.10;;;;;;;3.54;100.00;102627.22;5022210;28;20038;-70
2023/01/27 08:09:56;;;;;;;7.20;4.18;;;;;;;3.58;100.00;102624.56;5018458;28;20463;-70
2023/01/27 08:12:21;;;;;;;7.05;4.05;;;;;;;3.55;100.00;102624.56;5019831;28;20033;-70
2023/01/27 08:14:46;;;;;;;10.13;4.00;;;;;;;3.57;100.00;102627.22;5020957;28;20478;-70
2023/01/27 08:17:13;;;;;;;6.20;3.20;;;;;;;3.49;100.00;102645.72;5015995;28;20034;-70
2023/01/27 08:19:39;;;;;;;8.20;4.35;;;;;;;3.63;100.00;102635.97;4999708;28;20132;-70
2023/01/27 08:22:04;;;;;;;11.10;5.03;;;;;;;3.60;100.00;102629.81;5013323;28;20045;-70
2023/01/27 08:24:29;;;;;;;7.53;3.67;;;;;;;3.59;100.00;102642.16;5006515;28;20099;-70
2023/01/27 08:26:55;;;;;;;8.60;4.45;;;;;;;3.63;100.00;102645.66;5022359;28;20037;-70
2023/01/27 08:29:20;;;;;;;5.90;4.20;;;;;;;3.54;100.00;102666.78;5024256;28;20052;-69
2023/01/27 08:31:46;;;;;;;6.93;3.50;;;;;;;3.55;100.00;102660.63;5011699;28;20057;-70
2023/01/27 08:34:12;;;;;;;9.63;4.25;;;;;;;3.68;100.00;102661.44;5011993;28;20048;-74
2023/01/27 08:36:43;;;;;;;8.48;4.20;;;;;;;3.60;100.00;102670.25;5015851;28;20045;-70
2023/01/27 08:39:09;;;;;;;7.88;4.32;;;;;;;3.61;100.00;102674.69;5023542;28;20146;-70
2023/01/27 08:41:34;;;;;;;7.75;3.88;;;;;;;3.56;100.00;102673.78;5014676;28;20041;-70
2023/01/27 08:44:00;;;;;;;9.88;5.18;;;;;;;3.70;100.00;102670.22;5006510;28;20056;-70
2023/01/27 08:46:25;;;;;;;7.80;4.38;;;;;;;3.73;100.00;102662.31;5020083;28;20045;-70
2023/01/27 08:52:39;;;;;;;8.55;3.70;;;;;;;3.73;100.00;102667.59;5011247;28;20060;-70
2023/01/27 08:55:04;;;;;;;10.52;4.00;;;;;;;3.77;100.00;102667.56;5012042;28;20581;-70
2023/01/27 08:57:31;;;;;;;8.55;4.13;;;;;;;3.74;100.00;102672.84;5018350;28;20102;-70
2023/01/27 08:59:57;;;;;;;6.85;4.32;;;;;;;3.59;100.00;102679.06;5019046;28;20042;-70
2023/01/27 09:02:23;;;;;;;8.85;4.15;;;;;;;3.73;100.00;102676.38;5015428;28;21286;-70
2023/01/27 09:04:49;;;;;;;7.63;3.95;;;;;;;3.69;100.00;102690.47;5012563;28;20034;-70
2023/01/27 09:07:15;;;;;;;8.18;4.47;;;;;;;3.61;100.00;102682.59;5015500;28;20040;-70
2023/01/27 09:09:41;;;;;;;7.82;4.32;;;;;;;3.63;100.00;102696.63;5019807;28;20049;-70
2023/01/27 09:12:06;;;;;;;9.82;4.88;;;;;;;3.76;100.00;102696.56;5014133;28;20726;-70
2023/01/27 09:14:33;;;;;;;6.85;4.32;;;;;;;3.78;100.00;102702.72;5014209;28;20034;-70
2023/01/27 09:16:58;;;;;;;6.43;3.33;;;;;;;3.66;100.00;102700.13;5022792;28;20037;-71
2023/01/27 09:19:24;;;;;;;7.30;4.38;;;;;;;3.66;100.00;102703.66;5015422;28;20148;-70
2023/01/27 09:21:49;;;;;;;7.30;4.40;;;;;;;3.71;100.00;102691.31;5003058;28;20034;-70
2023/01/27 09:24:16;;;;;;;8.05;4.53;;;;;;;3.66;100.00;102703.66;5017679;28;20041;-70
2023/01/27 09:26:42;;;;;;;8.95;4.40;;;;;;;3.75;100.00;102700.09;5019371;28;20515;-70
2023/01/27 09:29:08;;;;;;;11.57;4.68;;;;;;;3.73;100.00;102713.31;5008604;28;20041;-70
2023/01/27 09:31:33;;;;;;;6.90;4.13;;;;;;;3.85;100.00;102704.44;5020048;28;20045;-70
2023/01/27 09:33:59;;;;;;;10.63;4.88;;;;;;;3.68;100.00;102714.22;5012947;28;20041;-70
2023/01/27 09:36:26;;;;;;;10.13;5.22;;;;;;;3.72;100.00;102711.56;5004844;28;20088;-70
2023/01/27 09:39:11;;;;;;;11.60;5.25;;;;;;;3.77;100.00;102715.06;5013781;28;20042;-70
2023/01/27 09:41:42;;;;;;;12.85;5.45;;;;;;;3.80;100.00;102725.56;5017611;28;20034;-70
2023/01/27 09:44:26;;;;;;;10.57;4.72;;;;;;;3.87;100.00;102723.81;5012675;28;20045;-70
2023/01/27 09:46:57;;;;;;;8.70;4.57;;;;;;;3.85;100.00;102715.88;5014354;28;20038;-70
2023/01/27 09:49:58;;;;;;;7.93;4.45;;;;;;;3.96;100.00;102718.44;5018425;28;20033;-70
2023/01/27 09:52:57;;;;;;;11.43;6.10;;;;;;;3.92;100.00;102707.94;5016733;28;20033;-70
2023/01/27 09:55:28;;;;;;;8.75;5.30;;;;;;;3.89;100.00;102714.97;5017424;28;20040;-70
2023/01/27 09:58:03;;;;;;;10.35;5.40;;;;;;;4.07;100.00;102708.72;5015182;28;20049;-70
2023/01/27 10:00:54;;;;;;;8.43;4.82;;;;;;;4.00;100.00;102717.53;5015526;28;20032;-70
2023/01/27 10:03:26;;;;;;;9.85;5.68;;;;;;;4.07;100.00;102713.13;5015170;28;20045;-70
2023/01/27 10:06:00;;;;;;;14.88;5.78;;;;;;;4.06;100.00;102700.78;5015702;28;20753;-69
2023/01/27 10:12:22;;;;;;;9.00;4.70;;;;;;;4.09;100.00;102713.97;5015960;28;20073;-70
2023/01/27 10:15:08;;;;;;;9.95;5.15;;;;;;;4.23;100.00;102720.06;5009918;28;20056;-70
2023/01/27 10:17:51;;;;;;;11.75;4.65;;;;;;;4.13;100.00;102715.72;5017948;28;20048;-70
2023/01/27 10:20:33;;;;;;;9.48;5.25;;;;;;;4.13;100.00;102713.97;5014892;28;20108;-72
2023/01/27 10:23:44;;;;;;;12.27;6.38;;;;;;;4.21;100.00;102716.53;5015332;28;20045;-70
2023/01/27 10:26:34;;;;;;;11.57;4.78;;;;;;;4.19;100.00;102709.53;5013276;28;20642;-71
2023/01/27 10:29:25;;;;;;;9.35;4.80;;;;;;;4.23;100.00;102716.53;5013587;28;20048;-71
2023/01/27 10:32:06;;;;;;;10.52;5.68;;;;;;;4.34;100.00;102705.00;5012982;28;20042;-70
2023/01/27 10:34:34;;;;;;;9.70;5.57;;;;;;;4.21;100.00;102720.94;5018051;28;20042;-70
2023/01/27 10:37:35;;;;;;;11.30;5.82;;;;;;;4.36;100.00;102708.50;5010053;28;20132;-70
2023/01/27 10:40:10;;;;;;;10.48;5.70;;;;;;;4.51;100.00;102702.22;4983670;28;20046;-70
2023/01/27 10:42:54;;;;;;;7.85;3.95;;;;;;;4.40;100.00;102704.94;4985640;28;20058;-70
2023/01/27 10:49:22;;;;;;;11.02;4.82;;;;;;;4.54;100.00;102691.63;4991217;28;20134;-70
2023/01/27 10:51:59;;;;;;;10.30;5.00;;;;;;;4.61;100.00;102703.03;4964250;28;20125;-70
2023/01/27 13:24:58;;;;;;;5.28;3.63;;;;;;;4.87;100.00;102642.88;5007278;28;20192;-71
2023/01/27 13:27:24;;;;;;;11.35;4.40;;;;;;;4.88;100.00;102641.13;5018837;28;20691;-71
2023/01/27 13:30:11;;;;;;;8.35;3.88;;;;;;;4.86;100.00;102641.09;5020599;28;20052;-71
2023/01/27 13:32:39;;;;;;;7.05;3.63;;;;;;;5.06;100.00;102646.19;5025129;28;20072;-71
2023/01/27 13:35:39;;;;;;;9.00;5.05;;;;;;;4.97;100.00;102641.03;5023603;28;20049;-71
2023/01/27 13:38:34;;;;;;;5.65;3.60;;;;;;;4.89;100.00;102638.44;4992297;28;20050;-70
2023/01/27 13:41:10;;;;;;;7.65;4.20;;;;;;;4.80;100.00;102635.03;5014745;28;20045;-71
2023/01/27 13:43:43;;;;;;;10.32;4.22;;;;;;;4.60;100.00;102646.66;5018502;28;20087;-71
2023/01/27 13:46:30;;;;;;;9.93;5.25;;;;;;;4.56;100.00;102638.78;5019385;28;20124;-71
2023/01/27 13:49:12;;;;;;;8.15;4.18;;;;;;;4.41;100.00;102656.50;5021663;28;20073;-70
2023/01/27 13:51:44;;;;;;;9.00;5.03;;;;;;;4.60;100.00;102646.66;4997916;28;20069;-71
2023/01/27 13:54:11;;;;;;;;;;;;;;;4.57;100.00;102656.41;5022380;28;20444;-71
2023/01/27 13:56:48;;;;;;;12.15;5.35;;;;;;;4.56;100.00;102658.16;5017680;28;20333;-71
2023/01/27 14:11:04;;;;;;;10.93;5.35;;;;;;;4.44;100.00;102660.91;5017762;28;21309;-71
2023/01/27 14:13:44;;;;;;;9.50;5.43;;;;;;;4.54;100.00;102652.00;4985904;28;20077;-71
2023/01/27 14:16:28;;;;;;;9.07;5.20;;;;;;;4.57;100.00;102657.28;5007374;28;20041;-71
2023/01/27 14:19:15;;;;;;;7.95;5.18;;;;;;;4.54;100.00;102652.00;5025092;28;20045;-71
2023/01/27 14:21:49;;;;;;;6.63;4.53;;;;;;;4.56;100.00;102658.16;5014600;28;20049;-71
2023/01/27 15:04:14;;;;;;;14.52;7.03;;;;;;;4.42;100.00;102683.84;5014424;28;20486;-71
2023/01/27 15:06:46;;;;;;;13.00;6.97;;;;;;;4.36;100.00;102690.00;5033110;28;20029;-70
2023/01/27 15:09:26;;;;;;;9.65;5.30;;;;;;;4.39;100.00;102681.19;5032651;28;20116;-70
2023/01/27 15:12:24;;;;;;;10.23;6.07;;;;;;;4.35;100.00;102687.38;5032892;28;20466;-70
2023/01/27 15:15:15;;;;;;;8.50;5.22;;;;;;;4.41;100.00;102689.97;4979926;28;20056;-70
2023/01/27 15:18:04;;;;;;;11.57;6.30;;;;;;;4.33;100.00;102697.09;5032848;28;20069;-71
2023/01/27 15:21:09;;;;;;;9.82;6.03;;;;;;;4.33;100.00;102690.06;5032715;28;20095;-70
2023/01/27 15:23:34;;;;;;;11.88;6.28;;;;;;;4.31;100.00;102696.22;5032507;28;20061;-71
2023/01/27 15:26:07;;;;;;;11.52;5.72;;;;;;;4.33;100.00;102702.38;5032729;28;20127;-70
2023/01/27 15:28:37;;;;;;;10.70;5.75;;;;;;;4.31;100.00;102702.38;5032635;28;20108;-70
2023/01/27 15:31:21;;;;;;;10.85;6.20;;;;;;;4.24;100.00;102713.88;5032560;28;20048;-71
2023/01/27 15:34:02;;;;;;;6.65;4.50;;;;;;;4.24;100.00;102708.59;5032575;28;20033;-71
2023/01/27 15:36:28;;;;;;;10.85;4.28;;;;;;;4.35;100.00;102704.09;5032130;28;20033;-70